Saint-Paul-De-Montminy, Canada
Current Conditions -  °F | °C
As of 11:00 PM on Sunday 21 Dec 2014 (Local Time) from CYQB Reporting Station
Overcast Overcast  
Wind Chill: 16°   Ceiling: 1400
Heat Index: 16°   Visibility: 15mi
Dew Point: 10°   Wind: 2mph
Humidity: 79%   Direction: 10°N
Pressure: 30.42"   Gusts: NA
Location:  46.73°N, 70.37°W
Report Text: CYQB 220400Z 01002KT 15SM OVC014 M09/M12 A3042 RMK SC8 INTMT -SN SLP306
Loading
Personal Weather Stations






























Interactive Weather Map New forecast layout! Learn more

10-Day Weather Forecast

Advertisements
Track Severe Weather on mobile